Main page
METAR-TAF:

METAR-TAF

Airports :

Port Hope, Michigan, United States

latitude: 44-01-19N, longitude: 082-47-35W, elevation: 587 ft

Current weather observation

The report was made 25 minutes ago, at 18:55 UTC
Wind 17 mph from the North with gusts up to 25 mph
Temperature 36°F
Humidity 60%
Pressure 30.27 in. Hg

METAR: KP58 241855Z AUTO 36015G22KT 02/M05 A3027 RMK AO1 PK WND 01029/1816 SLP259 T00171050

Time: 15:20 (19:20 UTC)


TAF: missing

Weather observations and forecasts of more than 4000 airports (METAR and TAF reports).

The available stations are represented by yellow and red dots on the map.

Hover mouse over dot to see the name of the station.

Then click to see weather observations and forecasts.

To change the map : click on the green buttons with a black cross to zoom in, on the green button with a dash to zoom out, or on the green arrows for adjacent maps.


METAR-TAF: